Time;durP1;ratioP1;P1;durP2;ratioP2;P2;SDS_P1;SDS_P2;PMS_P1;PMS_P2;Temp;Humidity;BMP_temperature;BMP_pressure;BME280_temperature;BME280_humidity;BME280_pressure;Samples;Min_cycle;Max_cycle;Signal;HPM_P1;HPM_P2
2022/07/18 00:00:36;;;;;;;3.85;3.55;;;;;;;;;;2100202;28;20171;-55
2022/07/18 00:01:36;;;;;;;4.15;3.85;;;;;;;;;;2090933;28;20188;-53
2022/07/18 00:02:37;;;;;;;4.07;3.67;;;;;;;;;;2074652;28;20169;-50
2022/07/18 00:03:37;;;;;;;5.88;4.05;;;;;;;;;;2082405;28;20709;-57
2022/07/18 00:04:38;;;;;;;4.63;3.90;;;;;;;;;;2098745;28;20175;-53
2022/07/18 00:05:38;;;;;;;4.18;3.83;;;;;;;;;;2099686;28;20171;-53
2022/07/18 00:06:38;;;;;;;6.13;3.78;;;;;;;;;;2098825;28;20155;-55
2022/07/18 00:07:39;;;;;;;7.30;4.60;;;;;;;;;;2099135;28;20181;-53
2022/07/18 00:08:39;;;;;;;5.18;4.72;;;;;;;;;;2099585;28;20154;-52
2022/07/18 00:09:40;;;;;;;4.70;4.30;;;;;;;;;;2099384;28;20191;-58
2022/07/18 00:10:40;;;;;;;5.70;4.78;;;;;;;;;;2090036;28;20190;-54
2022/07/18 00:11:40;;;;;;;6.95;4.25;;;;;;;;;;2089967;28;20167;-53
2022/07/18 00:12:41;;;;;;;5.20;4.43;;;;;;;;;;2099027;28;20667;-55
2022/07/18 00:13:41;;;;;;;7.13;4.88;;;;;;;;;;2098964;28;20269;-55
2022/07/18 00:14:41;;;;;;;5.35;4.13;;;;;;;;;;2098064;28;20163;-53
2022/07/18 00:15:42;;;;;;;6.55;4.32;;;;;;;;;;2098916;28;20167;-53
2022/07/18 00:16:42;;;;;;;5.85;3.92;;;;;;;;;;2098843;28;20225;-54
2022/07/18 00:17:43;;;;;;;5.00;4.60;;;;;;;;;;2099130;28;20202;-50
2022/07/18 00:18:43;;;;;;;5.13;4.60;;;;;;;;;;2090176;28;20168;-50
2022/07/18 00:19:43;;;;;;;4.57;4.18;;;;;;;;;;2090785;28;20199;-54
2022/07/18 00:20:44;;;;;;;6.90;4.07;;;;;;;;;;2099672;28;20175;-54
2022/07/18 00:21:44;;;;;;;4.43;3.95;;;;;;;;;;2100693;28;20174;-52
2022/07/18 00:22:44;;;;;;;4.15;3.85;;;;;;;;;;2099155;28;20186;-51
2022/07/18 00:23:45;;;;;;;4.20;3.75;;;;;;;;;;2100370;28;20217;-53
2022/07/18 00:24:45;;;;;;;6.25;4.10;;;;;;;;;;2089946;28;20202;-52
2022/07/18 00:25:45;;;;;;;4.95;3.80;;;;;;;;;;2090139;28;20271;-52
2022/07/18 00:26:46;;;;;;;4.43;3.60;;;;;;;;;;2083118;28;20173;-52
2022/07/18 00:27:46;;;;;;;4.15;3.75;;;;;;;;;;2088410;28;20286;-52
2022/07/18 00:28:47;;;;;;;5.53;3.58;;;;;;;;;;2089952;28;20245;-53
2022/07/18 00:29:47;;;;;;;4.75;3.75;;;;;;;;;;2081515;28;20200;-54
2022/07/18 00:30:47;;;;;;;3.97;3.60;;;;;;;;;;2081563;28;20180;-53
2022/07/18 00:31:48;;;;;;;5.95;3.90;;;;;;;;;;2081440;28;20169;-53
2022/07/18 00:32:48;;;;;;;3.63;3.33;;;;;;;;;;2090019;28;20181;-53
2022/07/18 00:33:48;;;;;;;4.20;3.80;;;;;;;;;;2098511;28;20168;-53
2022/07/18 00:34:49;;;;;;;4.68;3.75;;;;;;;;;;2089111;28;20163;-56
2022/07/18 00:35:49;;;;;;;3.72;3.42;;;;;;;;;;2089495;28;20164;-56
2022/07/18 00:36:49;;;;;;;4.18;3.40;;;;;;;;;;2098542;28;20525;-55
2022/07/18 00:37:50;;;;;;;5.97;3.72;;;;;;;;;;2098300;28;20242;-53
2022/07/18 00:38:50;;;;;;;4.90;3.80;;;;;;;;;;2099736;28;20174;-52
2022/07/18 00:39:50;;;;;;;4.88;3.25;;;;;;;;;;2099973;28;20664;-53
2022/07/18 00:40:51;;;;;;;3.55;3.25;;;;;;;;;;2100318;28;20220;-55
2022/07/18 00:41:51;;;;;;;4.32;3.35;;;;;;;;;;2100190;28;20210;-55
2022/07/18 00:42:52;;;;;;;4.28;3.75;;;;;;;;;;2091522;28;20205;-53
2022/07/18 00:43:52;;;;;;;3.83;3.30;;;;;;;;;;2091126;28;20174;-51
2022/07/18 00:44:56;;;;;;;3.80;3.30;;;;;;;;;;2100201;28;20822;-54
2022/07/18 00:45:56;;;;;;;4.35;3.10;;;;;;;;;;2100502;28;20282;-54
2022/07/18 00:46:58;;;;;;;4.70;3.20;;;;;;;;;;2100933;28;20182;-55
2022/07/18 00:47:58;;;;;;;3.60;3.30;;;;;;;;;;2100604;28;20159;-54
2022/07/18 00:48:58;;;;;;;3.65;3.40;;;;;;;;;;2100834;28;20213;-53
2022/07/18 00:49:59;;;;;;;3.90;2.97;;;;;;;;;;2100322;28;20257;-56
2022/07/18 00:50:59;;;;;;;3.25;2.85;;;;;;;;;;2100313;28;20194;-52
2022/07/18 00:51:59;;;;;;;3.58;3.10;;;;;;;;;;2091479;28;20159;-55
2022/07/18 00:53:00;;;;;;;3.42;3.05;;;;;;;;;;2091248;28;20163;-57
2022/07/18 00:54:00;;;;;;;3.63;3.33;;;;;;;;;;2099191;28;20170;-56
2022/07/18 00:55:01;;;;;;;4.32;3.05;;;;;;;;;;2100020;28;20212;-51
2022/07/18 00:56:02;;;;;;;3.28;2.97;;;;;;;;;;2099312;28;20259;-55
2022/07/18 00:57:02;;;;;;;3.90;3.03;;;;;;;;;;2099486;28;20224;-53
2022/07/18 00:58:03;;;;;;;3.53;3.22;;;;;;;;;;2090425;28;20229;-53
2022/07/18 00:59:03;;;;;;;3.38;3.08;;;;;;;;;;2090613;28;20230;-55
2022/07/18 01:01:42;;;;;;;3.55;3.35;;;;;;;;;;2090432;28;20245;-57
2022/07/18 01:02:43;;;;;;;3.55;3.25;;;;;;;;;;2092540;28;20253;-54
2022/07/18 01:03:43;;;;;;;4.40;3.63;;;;;;;;;;2099159;28;20169;-56
2022/07/18 01:04:43;;;;;;;4.25;3.35;;;;;;;;;;2098102;28;20692;-51
2022/07/18 01:05:44;;;;;;;3.55;3.25;;;;;;;;;;2099271;28;20203;-51
2022/07/18 01:06:44;;;;;;;5.70;3.00;;;;;;;;;;2099009;28;20159;-52
2022/07/18 01:07:45;;;;;;;2.85;2.65;;;;;;;;;;2090550;28;20159;-53
2022/07/18 01:08:45;;;;;;;4.88;3.72;;;;;;;;;;2090461;28;20172;-49
2022/07/18 01:09:46;;;;;;;3.63;3.33;;;;;;;;;;2099180;28;20240;-52
2022/07/18 01:10:46;;;;;;;3.35;3.05;;;;;;;;;;2099129;28;20168;-49
2022/07/18 01:11:47;;;;;;;4.75;3.30;;;;;;;;;;2098921;28;20675;-52
2022/07/18 01:12:47;;;;;;;4.28;3.22;;;;;;;;;;2090090;28;20164;-52
2022/07/18 01:13:48;;;;;;;4.35;3.35;;;;;;;;;;2081979;28;20180;-54
2022/07/18 01:14:49;;;;;;;4.03;3.05;;;;;;;;;;2081150;28;20175;-53
2022/07/18 01:15:50;;;;;;;3.22;3.00;;;;;;;;;;2090059;28;20194;-53
2022/07/18 01:16:50;;;;;;;3.63;3.33;;;;;;;;;;2098811;28;20539;-55
2022/07/18 01:17:50;;;;;;;4.60;2.95;;;;;;;;;;2098900;28;20177;-53
2022/07/18 01:18:51;;;;;;;3.97;3.10;;;;;;;;;;2098928;28;20178;-51
2022/07/18 01:19:52;;;;;;;2.95;2.75;;;;;;;;;;2098614;28;20241;-50
2022/07/18 01:20:52;;;;;;;3.38;3.03;;;;;;;;;;2098843;28;20174;-52
2022/07/18 01:21:52;;;;;;;3.42;3.13;;;;;;;;;;2099106;28;20208;-54
2022/07/18 01:22:53;;;;;;;4.40;3.03;;;;;;;;;;2098576;28;20171;-53
2022/07/18 01:23:53;;;;;;;3.03;2.72;;;;;;;;;;2098778;28;20171;-52
2022/07/18 01:24:53;;;;;;;3.15;2.90;;;;;;;;;;2098659;28;20523;-52
2022/07/18 01:25:54;;;;;;;3.83;3.35;;;;;;;;;;2090144;28;20218;-55
2022/07/18 01:26:54;;;;;;;3.78;2.70;;;;;;;;;;2076907;28;20165;-54
2022/07/18 01:27:56;;;;;;;4.03;3.28;;;;;;;;;;2073777;28;20622;-48
2022/07/18 01:28:57;;;;;;;3.15;2.85;;;;;;;;;;2091016;28;20155;-55
2022/07/18 01:29:57;;;;;;;4.10;2.90;;;;;;;;;;2090683;28;20250;-51
2022/07/18 01:30:57;;;;;;;3.30;3.10;;;;;;;;;;2090981;28;20187;-54
2022/07/18 01:32:05;;;;;;;3.45;2.95;;;;;;;;;;2090236;28;20171;-50
2022/07/18 01:33:05;;;;;;;3.35;3.00;;;;;;;;;;2091173;28;20190;-52
2022/07/18 01:34:05;;;;;;;3.38;3.03;;;;;;;;;;2098417;28;20178;-54
2022/07/18 01:35:06;;;;;;;3.53;2.67;;;;;;;;;;2102012;28;20167;-57
2022/07/18 01:36:06;;;;;;;3.17;2.97;;;;;;;;;;2101231;28;20170;-58
2022/07/18 01:37:08;;;;;;;4.05;3.33;;;;;;;;;;2102066;28;20328;-57
2022/07/18 01:38:08;;;;;;;3.85;3.20;;;;;;;;;;2096595;28;20187;-57
2022/07/18 01:39:09;;;;;;;3.13;2.92;;;;;;;;;;2097136;28;20242;-57
2022/07/18 01:40:10;;;;;;;4.13;3.50;;;;;;;;;;2100826;28;20170;-56
2022/07/18 01:41:10;;;;;;;4.00;3.03;;;;;;;;;;2090852;28;20210;-57
2022/07/18 01:42:11;;;;;;;4.20;3.42;;;;;;;;;;2100513;28;20198;-56
2022/07/18 01:43:12;;;;;;;3.38;3.10;;;;;;;;;;2100560;28;20194;-58
2022/07/18 01:44:12;;;;;;;4.53;3.55;;;;;;;;;;2099183;28;20170;-58
2022/07/18 01:45:13;;;;;;;3.78;3.47;;;;;;;;;;2099870;28;20197;-57
2022/07/18 01:46:13;;;;;;;3.65;3.35;;;;;;;;;;2099758;28;20186;-59
2022/07/18 01:47:13;;;;;;;3.58;3.28;;;;;;;;;;2082570;28;20270;-58
2022/07/18 01:48:14;;;;;;;3.67;3.28;;;;;;;;;;2074012;28;20176;-57
2022/07/18 01:49:14;;;;;;;3.25;3.05;;;;;;;;;;2083669;28;20215;-57
2022/07/18 01:50:15;;;;;;;3.75;3.33;;;;;;;;;;2082010;28;20656;-55
2022/07/18 01:51:15;;;;;;;6.63;3.95;;;;;;;;;;2082582;28;20196;-55
2022/07/18 01:52:16;;;;;;;4.13;3.22;;;;;;;;;;2090452;28;20667;-58
2022/07/18 01:53:17;;;;;;;7.20;3.58;;;;;;;;;;2090902;28;20168;-56
2022/07/18 01:54:24;;;;;;;4.22;3.83;;;;;;;;;;2099196;28;20233;-58
2022/07/18 01:55:25;;;;;;;8.57;3.95;;;;;;;;;;2100098;28;20163;-57
2022/07/18 01:56:25;;;;;;;5.32;3.03;;;;;;;;;;2099964;28;20220;-58
2022/07/18 01:57:25;;;;;;;3.80;3.50;;;;;;;;;;2099684;28;20522;-57
2022/07/18 01:58:26;;;;;;;4.22;3.60;;;;;;;;;;2099376;28;20190;-56
2022/07/18 01:59:26;;;;;;;3.85;3.47;;;;;;;;;;2089785;28;20202;-52
2022/07/18 02:00:27;;;;;;;4.70;3.05;;;;;;;;;;2089967;28;20174;-53
2022/07/18 02:01:27;;;;;;;3.78;3.38;;;;;;;;;;2098723;28;20201;-49
2022/07/18 02:02:27;;;;;;;3.53;3.22;;;;;;;;;;2098837;28;20199;-52
2022/07/18 02:03:28;;;;;;;4.65;3.47;;;;;;;;;;2090016;28;20166;-49
2022/07/18 02:05:47;;;;;;;4.22;3.17;;;;;;;;;;2098792;28;20183;-49
2022/07/18 02:06:47;;;;;;;4.40;3.65;;;;;;;;;;2098588;28;20167;-51
2022/07/18 02:07:48;;;;;;;5.97;3.58;;;;;;;;;;2089646;28;20233;-49
2022/07/18 02:08:48;;;;;;;5.95;4.07;;;;;;;;;;2089903;28;20227;-49
2022/07/18 02:09:48;;;;;;;3.83;3.53;;;;;;;;;;2081405;28;20204;-50
2022/07/18 02:10:49;;;;;;;4.85;3.55;;;;;;;;;;2081601;28;20235;-52
2022/07/18 02:11:49;;;;;;;3.92;3.63;;;;;;;;;;2098792;28;20261;-49
2022/07/18 02:12:50;;;;;;;5.53;3.40;;;;;;;;;;2098334;28;20163;-51
2022/07/18 02:13:50;;;;;;;4.35;3.58;;;;;;;;;;2098551;28;20191;-47
2022/07/18 02:14:51;;;;;;;3.60;3.30;;;;;;;;;;2097939;28;20194;-52
2022/07/18 02:15:55;;;;;;;3.80;3.35;;;;;;;;;;2089774;28;20198;-53
2022/07/18 02:16:55;;;;;;;4.15;3.80;;;;;;;;;;2090359;28;20236;-53
2022/07/18 02:17:55;;;;;;;3.63;3.30;;;;;;;;;;2089509;28;20175;-53
2022/07/18 02:18:56;;;;;;;3.47;3.28;;;;;;;;;;2089819;28;20294;-50
2022/07/18 02:19:56;;;;;;;5.53;4.03;;;;;;;;;;2098568;28;20281;-52
2022/07/18 02:20:57;;;;;;;4.40;3.70;;;;;;;;;;2098759;28;20677;-50
2022/07/18 02:21:57;;;;;;;5.32;3.75;;;;;;;;;;2098546;28;20179;-53
2022/07/18 02:22:57;;;;;;;4.63;4.00;;;;;;;;;;2098350;28;20199;-54
2022/07/18 02:23:58;;;;;;;4.30;3.70;;;;;;;;;;2097772;28;20181;-55
2022/07/18 02:24:58;;;;;;;3.90;3.53;;;;;;;;;;2098257;28;20258;-51
2022/07/18 02:25:59;;;;;;;4.15;3.17;;;;;;;;;;2098494;28;20194;-47
2022/07/18 02:27:00;;;;;;;7.10;3.65;;;;;;;;;;2098715;28;20219;-54
2022/07/18 02:28:00;;;;;;;4.00;3.70;;;;;;;;;;2098039;28;20206;-52
2022/07/18 02:29:00;;;;;;;4.05;3.75;;;;;;;;;;2098690;28;20156;-55
2022/07/18 02:30:01;;;;;;;3.65;3.35;;;;;;;;;;2098347;28;20187;-50
2022/07/18 02:31:01;;;;;;;5.38;3.40;;;;;;;;;;2098617;28;20198;-52
2022/07/18 02:32:02;;;;;;;3.88;3.58;;;;;;;;;;2098431;28;20201;-56
2022/07/18 02:33:02;;;;;;;4.72;3.75;;;;;;;;;;2098407;28;20167;-53
2022/07/18 02:34:09;;;;;;;5.32;3.50;;;;;;;;;;2082808;28;20164;-54
2022/07/18 02:35:10;;;;;;;4.07;3.65;;;;;;;;;;2082495;28;20155;-51
2022/07/18 02:36:10;;;;;;;3.45;3.22;;;;;;;;;;2090267;28;20171;-55
2022/07/18 02:37:11;;;;;;;4.72;3.92;;;;;;;;;;2090238;28;20170;-55
2022/07/18 02:38:11;;;;;;;3.75;3.45;;;;;;;;;;2087386;28;20274;-51
2022/07/18 02:39:12;;;;;;;4.50;3.95;;;;;;;;;;2089671;28;20159;-53
2022/07/18 02:40:12;;;;;;;4.45;3.72;;;;;;;;;;2098599;28;20194;-55
2022/07/18 02:41:12;;;;;;;6.28;4.00;;;;;;;;;;2098623;28;20163;-56
2022/07/18 02:42:13;;;;;;;4.38;3.90;;;;;;;;;;2098284;28;20178;-53
2022/07/18 02:43:13;;;;;;;4.82;3.78;;;;;;;;;;2089432;28;20186;-55
2022/07/18 02:44:14;;;;;;;4.18;3.45;;;;;;;;;;2088584;28;20237;-54
2022/07/18 02:45:14;;;;;;;4.47;3.33;;;;;;;;;;2089704;28;20167;-52
2022/07/18 02:46:15;;;;;;;4.13;3.72;;;;;;;;;;2089485;28;20294;-57
2022/07/18 02:47:15;;;;;;;4.25;3.72;;;;;;;;;;2098009;28;20159;-54
2022/07/18 02:48:15;;;;;;;5.05;4.18;;;;;;;;;;2096736;28;20181;-56
2022/07/18 02:49:28;;;;;;;5.22;3.72;;;;;;;;;;2098207;28;20173;-53
2022/07/18 02:50:28;;;;;;;7.63;4.00;;;;;;;;;;2089363;28;20179;-52
2022/07/18 02:51:29;;;;;;;4.20;3.50;;;;;;;;;;2088437;28;20571;-52
2022/07/18 02:52:29;;;;;;;4.65;4.07;;;;;;;;;;2098429;28;20249;-53
2022/07/18 02:53:29;;;;;;;3.92;3.63;;;;;;;;;;2089666;28;20214;-55
2022/07/18 02:54:31;;;;;;;4.78;4.03;;;;;;;;;;2088508;28;20191;-55
2022/07/18 02:55:31;;;;;;;3.92;3.45;;;;;;;;;;2098164;28;20637;-51
2022/07/18 02:56:31;;;;;;;5.90;3.70;;;;;;;;;;2089516;28;20168;-56
2022/07/18 02:57:32;;;;;;;4.13;3.55;;;;;;;;;;2081182;28;20172;-54
2022/07/18 02:58:32;;;;;;;4.30;4.00;;;;;;;;;;2089632;28;20194;-55
2022/07/18 02:59:33;;;;;;;4.40;4.00;;;;;;;;;;2098388;28;20189;-53
2022/07/18 03:00:33;;;;;;;4.22;3.83;;;;;;;;;;2098251;28;20647;-53
2022/07/18 03:01:33;;;;;;;4.65;3.67;;;;;;;;;;2097895;28;20163;-51
2022/07/18 03:02:34;;;;;;;4.43;4.03;;;;;;;;;;2089855;28;20217;-55
2022/07/18 03:03:34;;;;;;;4.85;4.35;;;;;;;;;;2089650;28;20202;-53
2022/07/18 03:04:34;;;;;;;4.03;3.70;;;;;;;;;;2097608;28;20166;-52
2022/07/18 03:05:35;;;;;;;5.82;4.20;;;;;;;;;;2098253;28;20635;-50
2022/07/18 03:06:35;;;;;;;4.10;3.80;;;;;;;;;;2096002;28;20163;-51
2022/07/18 03:07:35;;;;;;;4.43;3.40;;;;;;;;;;2098436;28;20227;-52
2022/07/18 03:08:36;;;;;;;4.57;3.83;;;;;;;;;;2089371;28;20160;-53
2022/07/18 03:09:36;;;;;;;3.85;3.55;;;;;;;;;;2089536;28;20695;-55
2022/07/18 03:10:36;;;;;;;4.78;4.38;;;;;;;;;;2098380;28;20162;-56
2022/07/18 03:11:37;;;;;;;4.50;4.10;;;;;;;;;;2098390;28;20236;-48
2022/07/18 03:12:39;;;;;;;4.43;4.03;;;;;;;;;;2098325;28;20340;-50
2022/07/18 03:13:39;;;;;;;4.05;3.67;;;;;;;;;;2089601;28;20594;-51
2022/07/18 03:14:40;;;;;;;4.32;3.92;;;;;;;;;;2080142;28;20164;-49
2022/07/18 03:15:40;;;;;;;4.15;3.85;;;;;;;;;;2089044;28;20174;-55
2022/07/18 03:16:41;;;;;;;4.97;4.03;;;;;;;;;;2098222;28;20580;-56
2022/07/18 03:17:41;;;;;;;4.43;3.78;;;;;;;;;;2098102;28;20171;-52
2022/07/18 03:18:41;;;;;;;5.05;4.07;;;;;;;;;;2097961;28;20174;-55
2022/07/18 03:19:42;;;;;;;3.97;3.63;;;;;;;;;;2097920;28;20199;-54
2022/07/18 03:20:42;;;;;;;6.13;4.07;;;;;;;;;;2098164;28;20159;-50
2022/07/18 03:21:42;;;;;;;4.00;3.60;;;;;;;;;;2098047;28;20171;-48
2022/07/18 03:22:43;;;;;;;3.90;3.50;;;;;;;;;;2098500;28;20171;-53
2022/07/18 03:23:43;;;;;;;4.40;3.95;;;;;;;;;;2098607;28;20173;-55
2022/07/18 03:24:43;;;;;;;4.07;3.70;;;;;;;;;;2097288;28;20170;-52
2022/07/18 03:25:44;;;;;;;5.32;3.60;;;;;;;;;;2098383;28;20155;-52
2022/07/18 03:26:44;;;;;;;5.93;4.13;;;;;;;;;;2097920;28;20254;-51
2022/07/18 03:27:44;;;;;;;3.85;3.42;;;;;;;;;;2098375;28;20163;-51
2022/07/18 03:28:45;;;;;;;5.95;3.65;;;;;;;;;;2098415;28;20171;-51
2022/07/18 03:29:45;;;;;;;4.22;3.83;;;;;;;;;;2089433;28;20607;-50
2022/07/18 03:30:45;;;;;;;4.43;3.63;;;;;;;;;;2088872;28;20163;-47
2022/07/18 03:31:46;;;;;;;3.83;3.53;;;;;;;;;;2088728;28;20164;-51
2022/07/18 03:32:46;;;;;;;4.80;4.32;;;;;;;;;;2072179;28;20211;-50
2022/07/18 03:33:47;;;;;;;6.05;4.53;;;;;;;;;;2077323;28;20176;-50
2022/07/18 03:34:47;;;;;;;4.30;4.00;;;;;;;;;;2064115;28;20176;-49
2022/07/18 03:35:47;;;;;;;4.97;4.38;;;;;;;;;;2081223;28;20172;-52
2022/07/18 03:36:48;;;;;;;5.57;4.60;;;;;;;;;;2089435;28;20202;-56
2022/07/18 03:37:48;;;;;;;7.15;4.60;;;;;;;;;;2084386;28;20171;-53
2022/07/18 03:38:48;;;;;;;4.85;4.18;;;;;;;;;;2089427;28;20710;-55
2022/07/18 03:39:49;;;;;;;4.65;4.22;;;;;;;;;;2097983;28;20183;-52
2022/07/18 03:40:49;;;;;;;6.28;4.45;;;;;;;;;;2098207;28;20510;-51
2022/07/18 03:41:51;;;;;;;6.32;3.90;;;;;;;;;;2089194;28;20201;-50
2022/07/18 03:42:51;;;;;;;4.13;3.83;;;;;;;;;;2089307;28;20172;-53
2022/07/18 03:43:52;;;;;;;4.45;3.97;;;;;;;;;;2097756;28;20198;-47
2022/07/18 03:44:52;;;;;;;4.72;3.80;;;;;;;;;;2097774;28;20163;-55
2022/07/18 03:45:52;;;;;;;7.75;3.95;;;;;;;;;;2088861;28;20214;-55
2022/07/18 03:46:53;;;;;;;5.72;4.10;;;;;;;;;;2089127;28;20167;-54
2022/07/18 03:47:55;;;;;;;6.47;3.63;;;;;;;;;;2089361;28;20171;-55
2022/07/18 03:48:55;;;;;;;5.40;3.50;;;;;;;;;;2090324;28;20652;-50
2022/07/18 03:49:55;;;;;;;5.25;3.63;;;;;;;;;;2097907;28;20182;-51
2022/07/18 03:50:56;;;;;;;4.05;3.75;;;;;;;;;;2098014;28;20657;-51
2022/07/18 03:51:56;;;;;;;13.20;4.07;;;;;;;;;;2097654;28;20636;-52
2022/07/18 03:52:56;;;;;;;4.72;4.25;;;;;;;;;;2098311;28;20181;-50
2022/07/18 03:53:57;;;;;;;6.57;3.97;;;;;;;;;;2097707;28;20610;-51
2022/07/18 03:55:01;;;;;;;6.80;3.60;;;;;;;;;;2080504;28;20164;-52
2022/07/18 03:56:01;;;;;;;3.88;3.58;;;;;;;;;;2081338;28;20176;-55
2022/07/18 03:57:02;;;;;;;4.82;4.32;;;;;;;;;;2089027;28;20163;-56
2022/07/18 03:58:02;;;;;;;5.25;4.03;;;;;;;;;;2098028;28;20159;-53
2022/07/18 03:59:02;;;;;;;3.72;3.40;;;;;;;;;;2098005;28;20198;-50
2022/07/18 04:00:05;;;;;;;6.13;4.22;;;;;;;;;;2097839;28;20198;-53
2022/07/18 04:01:12;;;;;;;3.97;3.67;;;;;;;;;;2089426;28;20172;-53
2022/07/18 04:02:12;;;;;;;4.10;3.80;;;;;;;;;;2089931;28;20663;-50
2022/07/18 04:03:13;;;;;;;4.30;3.88;;;;;;;;;;2097884;28;20247;-53
2022/07/18 04:04:13;;;;;;;4.00;3.70;;;;;;;;;;2097134;28;20218;-50
2022/07/18 04:05:14;;;;;;;4.00;3.47;;;;;;;;;;2098029;28;20201;-55
2022/07/18 04:06:14;;;;;;;5.75;3.83;;;;;;;;;;2089174;28;20647;-52
2022/07/18 04:07:14;;;;;;;4.75;3.97;;;;;;;;;;2090112;28;20194;-57
2022/07/18 04:08:15;;;;;;;4.32;3.92;;;;;;;;;;2098749;28;20217;-56
2022/07/18 04:10:30;;;;;;;7.25;4.88;;;;;;;;;;2074707;28;20219;-59
2022/07/18 04:11:31;;;;;;;4.32;3.95;;;;;;;;;;2078220;28;20183;-58
2022/07/18 04:12:31;;;;;;;5.45;4.13;;;;;;;;;;2068535;28;20177;-57
2022/07/18 04:13:32;;;;;;;5.05;4.18;;;;;;;;;;2074780;28;20696;-58
2022/07/18 04:14:32;;;;;;;7.35;4.05;;;;;;;;;;2071140;28;20272;-59
2022/07/18 04:15:33;;;;;;;5.93;4.10;;;;;;;;;;2076349;28;20181;-59
2022/07/18 04:16:33;;;;;;;4.47;3.90;;;;;;;;;;2076357;28;20581;-60
2022/07/18 04:17:33;;;;;;;4.47;3.95;;;;;;;;;;2076738;28;20208;-61
2022/07/18 04:18:34;;;;;;;6.38;4.60;;;;;;;;;;2068131;28;20625;-60
2022/07/18 04:19:34;;;;;;;7.78;4.20;;;;;;;;;;2071134;28;20205;-59
2022/07/18 04:20:35;;;;;;;5.88;3.97;;;;;;;;;;2086689;28;20176;-60
2022/07/18 04:21:35;;;;;;;7.38;4.35;;;;;;;;;;2077702;28;20173;-58
2022/07/18 04:22:45;;;;;;;4.03;3.67;;;;;;;;;;2087930;28;20245;-58
2022/07/18 04:23:46;;;;;;;4.70;4.28;;;;;;;;;;2093052;28;20228;-59
2022/07/18 04:24:46;;;;;;;4.53;3.95;;;;;;;;;;2092063;28;20183;-58
2022/07/18 04:25:46;;;;;;;5.20;3.90;;;;;;;;;;2067857;28;20165;-58
2022/07/18 04:26:47;;;;;;;4.28;3.85;;;;;;;;;;2066898;28;20173;-57
2022/07/18 04:27:48;;;;;;;3.85;3.28;;;;;;;;;;2061509;28;20185;-58
2022/07/18 04:28:48;;;;;;;4.43;3.40;;;;;;;;;;2066475;28;20169;-55
2022/07/18 04:29:48;;;;;;;3.45;3.15;;;;;;;;;;2082921;28;20246;-56
2022/07/18 04:30:49;;;;;;;4.40;3.42;;;;;;;;;;2074871;28;20637;-55
2022/07/18 04:31:49;;;;;;;4.00;3.70;;;;;;;;;;2083387;28;20160;-59
2022/07/18 04:32:50;;;;;;;4.43;4.07;;;;;;;;;;2083094;28;20633;-57
2022/07/18 04:33:50;;;;;;;5.40;3.85;;;;;;;;;;2079120;28;20193;-55
2022/07/18 04:34:51;;;;;;;5.50;4.13;;;;;;;;;;2081853;28;20171;-58
2022/07/18 04:35:52;;;;;;;4.18;3.80;;;;;;;;;;2083317;28;20235;-57
2022/07/18 04:36:52;;;;;;;4.88;3.30;;;;;;;;;;2083688;28;20180;-60
2022/07/18 04:37:52;;;;;;;7.55;4.00;;;;;;;;;;2083614;28;20180;-60
2022/07/18 04:38:53;;;;;;;5.90;3.85;;;;;;;;;;2083566;28;20192;-59
2022/07/18 04:39:53;;;;;;;4.82;3.25;;;;;;;;;;2083791;28;20188;-60
2022/07/18 04:40:53;;;;;;;4.15;3.55;;;;;;;;;;2083367;28;20167;-58
2022/07/18 04:41:55;;;;;;;4.32;3.28;;;;;;;;;;2083502;28;20190;-59
2022/07/18 04:42:55;;;;;;;6.10;3.53;;;;;;;;;;2075221;28;20172;-58
2022/07/18 04:43:55;;;;;;;3.88;3.40;;;;;;;;;;2082263;28;20636;-59
2022/07/18 04:44:56;;;;;;;5.32;4.82;;;;;;;;;;2073730;28;20240;-59
2022/07/18 04:45:56;;;;;;;5.72;4.05;;;;;;;;;;2075182;28;20181;-61
2022/07/18 04:46:56;;;;;;;6.72;3.63;;;;;;;;;;2085246;28;20168;-60
2022/07/18 04:47:57;;;;;;;4.55;3.72;;;;;;;;;;2089547;28;20167;-59
2022/07/18 04:48:57;;;;;;;4.78;3.30;;;;;;;;;;2083350;28;20652;-58
2022/07/18 04:49:58;;;;;;;4.95;3.88;;;;;;;;;;2083929;28;20186;-60
2022/07/18 04:50:58;;;;;;;3.65;3.35;;;;;;;;;;2076885;28;20176;-59
2022/07/18 04:51:58;;;;;;;3.97;2.95;;;;;;;;;;2084613;28;20207;-60
2022/07/18 04:52:59;;;;;;;5.25;4.05;;;;;;;;;;2092782;28;20170;-59
2022/07/18 04:53:59;;;;;;;5.75;3.40;;;;;;;;;;2093375;28;20167;-60
2022/07/18 04:54:59;;;;;;;4.78;3.33;;;;;;;;;;2083711;28;20160;-57
2022/07/18 04:55:59;;;;;;;4.22;3.92;;;;;;;;;;2083147;28;20195;-58
2022/07/18 04:57:00;;;;;;;4.65;3.38;;;;;;;;;;2074574;28;20188;-59
2022/07/18 04:58:00;;;;;;;3.95;3.50;;;;;;;;;;2074679;28;20269;-60
2022/07/18 04:59:01;;;;;;;3.53;3.22;;;;;;;;;;2082695;28;20223;-59
2022/07/18 05:00:03;;;;;;;5.22;3.55;;;;;;;;;;2091013;28;20196;-57
2022/07/18 05:01:04;;;;;;;3.90;3.17;;;;;;;;;;2091037;28;20203;-58
2022/07/18 05:02:04;;;;;;;3.97;3.28;;;;;;;;;;2090496;28;20620;-55
2022/07/18 05:03:04;;;;;;;5.68;3.63;;;;;;;;;;2082947;28;20195;-55
2022/07/18 05:04:05;;;;;;;3.88;3.38;;;;;;;;;;2073135;28;20185;-57
2022/07/18 05:05:05;;;;;;;4.85;3.28;;;;;;;;;;2079491;28;20176;-57
2022/07/18 05:06:05;;;;;;;5.30;3.55;;;;;;;;;;2081748;28;20240;-60
2022/07/18 05:07:06;;;;;;;4.30;3.47;;;;;;;;;;2082112;28;20218;-57
2022/07/18 05:08:06;;;;;;;5.20;3.47;;;;;;;;;;2081960;28;20165;-58
2022/07/18 05:09:07;;;;;;;4.30;3.35;;;;;;;;;;2082328;28;20181;-57
2022/07/18 05:10:08;;;;;;;5.90;3.50;;;;;;;;;;2088721;28;20208;-56
2022/07/18 05:11:08;;;;;;;3.28;2.90;;;;;;;;;;2076655;28;20184;-59
2022/07/18 05:12:09;;;;;;;5.13;3.72;;;;;;;;;;2076425;28;20180;-59
2022/07/18 05:13:10;;;;;;;6.15;3.50;;;;;;;;;;2091011;28;20163;-58
2022/07/18 05:14:10;;;;;;;4.88;3.55;;;;;;;;;;2083300;28;20176;-58
2022/07/18 05:15:12;;;;;;;3.60;2.78;;;;;;;;;;2082743;28;20165;-58
2022/07/18 05:16:12;;;;;;;5.25;3.10;;;;;;;;;;2085346;28;20179;-59
2022/07/18 05:17:12;;;;;;;4.85;3.22;;;;;;;;;;2091265;28;20502;-58
2022/07/18 05:18:13;;;;;;;3.15;2.85;;;;;;;;;;2084042;28;20168;-58
2022/07/18 05:19:15;;;;;;;4.80;3.20;;;;;;;;;;2081558;28;20208;-58
2022/07/18 05:20:16;;;;;;;3.53;3.10;;;;;;;;;;2082402;28;20270;-59
2022/07/18 05:21:16;;;;;;;5.78;3.22;;;;;;;;;;2082426;28;20176;-60
2022/07/18 05:22:16;;;;;;;5.03;3.33;;;;;;;;;;2082846;28;20222;-59
2022/07/18 05:23:17;;;;;;;4.75;3.17;;;;;;;;;;2082556;28;20160;-59
2022/07/18 05:24:18;;;;;;;8.48;3.97;;;;;;;;;;2082282;28;20454;-58
2022/07/18 05:25:18;;;;;;;8.63;3.65;;;;;;;;;;2082611;28;20272;-59
2022/07/18 05:26:19;;;;;;;6.53;3.35;;;;;;;;;;2082609;28;20196;-61
2022/07/18 05:27:19;;;;;;;5.50;3.13;;;;;;;;;;2082548;28;20244;-60
2022/07/18 05:28:20;;;;;;;3.50;3.17;;;;;;;;;;2074765;28;20779;-59
2022/07/18 05:29:20;;;;;;;5.47;3.17;;;;;;;;;;2081906;28;20200;-58
2022/07/18 05:30:21;;;;;;;4.70;3.25;;;;;;;;;;2090285;28;20222;-59
2022/07/18 05:31:21;;;;;;;3.47;3.00;;;;;;;;;;2079195;28;20168;-59
2022/07/18 05:32:21;;;;;;;7.13;3.30;;;;;;;;;;2082202;28;20168;-60
2022/07/18 05:33:22;;;;;;;7.13;3.30;;;;;;;;;;2090460;28;20180;-59
2022/07/18 05:34:22;;;;;;;3.42;3.17;;;;;;;;;;2081708;28;20164;-59
2022/07/18 05:35:23;;;;;;;4.68;3.38;;;;;;;;;;2073174;28;20177;-57
2022/07/18 05:36:23;;;;;;;3.25;2.95;;;;;;;;;;2073876;28;20207;-59
2022/07/18 05:37:23;;;;;;;3.50;3.15;;;;;;;;;;2082181;28;20200;-58
2022/07/18 05:38:24;;;;;;;4.80;3.15;;;;;;;;;;2082465;28;20192;-59
2022/07/18 05:39:24;;;;;;;3.13;2.80;;;;;;;;;;2073451;28;20173;-57
2022/07/18 05:40:25;;;;;;;3.88;3.33;;;;;;;;;;2074027;28;20275;-58
2022/07/18 05:41:25;;;;;;;4.13;3.08;;;;;;;;;;2084610;28;20192;-58
2022/07/18 05:42:25;;;;;;;6.57;3.50;;;;;;;;;;2083917;28;20184;-60
2022/07/18 05:43:26;;;;;;;4.18;2.90;;;;;;;;;;2086431;28;20171;-58
2022/07/18 05:44:26;;;;;;;3.80;3.08;;;;;;;;;;2089855;28;20250;-58
2022/07/18 05:45:26;;;;;;;4.38;3.50;;;;;;;;;;2090637;28;20163;-59
2022/07/18 05:46:27;;;;;;;5.80;3.30;;;;;;;;;;2090771;28;20608;-60
2022/07/18 05:47:27;;;;;;;6.28;3.15;;;;;;;;;;2087127;28;20214;-59
2022/07/18 05:48:27;;;;;;;3.88;2.95;;;;;;;;;;2082776;28;20164;-58
2022/07/18 05:49:28;;;;;;;5.80;2.83;;;;;;;;;;2082681;28;20172;-60
2022/07/18 05:50:28;;;;;;;3.40;3.05;;;;;;;;;;2082540;28;20647;-60
2022/07/18 05:51:29;;;;;;;5.13;2.90;;;;;;;;;;2082728;28;20187;-59
2022/07/18 05:52:29;;;;;;;4.60;3.53;;;;;;;;;;2082865;28;20552;-58
2022/07/18 05:53:29;;;;;;;5.47;3.08;;;;;;;;;;2082721;28;20164;-60
2022/07/18 05:54:30;;;;;;;5.10;2.92;;;;;;;;;;2081365;28;20180;-63
2022/07/18 05:55:30;;;;;;;6.00;3.00;;;;;;;;;;2082335;28;20160;-60
2022/07/18 05:56:30;;;;;;;4.05;3.22;;;;;;;;;;2082528;28;20172;-60
2022/07/18 05:57:31;;;;;;;4.57;2.83;;;;;;;;;;2082863;28;20211;-59
2022/07/18 05:58:31;;;;;;;8.50;3.92;;;;;;;;;;2082165;28;20230;-58
2022/07/18 05:59:32;;;;;;;6.20;3.20;;;;;;;;;;2081923;28;20175;-59
2022/07/18 06:00:32;;;;;;;6.70;3.40;;;;;;;;;;2081870;28;20219;-60
2022/07/18 06:01:32;;;;;;;4.70;2.78;;;;;;;;;;2082085;28;20655;-59
2022/07/18 06:02:33;;;;;;;3.40;3.00;;;;;;;;;;2081631;28;20182;-60
2022/07/18 06:03:33;;;;;;;5.95;3.30;;;;;;;;;;2081914;28;20172;-59
2022/07/18 06:04:33;;;;;;;3.03;2.83;;;;;;;;;;2089732;28;20214;-59
2022/07/18 06:05:34;;;;;;;3.63;2.75;;;;;;;;;;2090799;28;20251;-59
2022/07/18 06:06:34;;;;;;;3.50;3.03;;;;;;;;;;2090662;28;20172;-59
2022/07/18 06:07:35;;;;;;;3.13;2.83;;;;;;;;;;2083604;28;20234;-56